createdAt,value
2023-01-18T00:01:19.805Z,90.75
2023-01-18T00:03:47.379Z,91.21
2023-01-18T00:06:15.187Z,90.86
2023-01-18T00:08:45.105Z,91.31
2023-01-18T00:11:15.489Z,91.21
2023-01-18T00:13:43.239Z,91.15
2023-01-18T00:16:19.634Z,91.30
2023-01-18T00:19:00.067Z,91.04
2023-01-18T00:21:28.255Z,91.26
2023-01-18T00:23:57.048Z,91.28
2023-01-18T00:26:24.165Z,91.56
2023-01-18T00:28:51.307Z,91.23
2023-01-18T00:31:20.821Z,91.04
2023-01-18T00:33:50.032Z,90.73
2023-01-18T00:36:18.531Z,90.44
2023-01-18T00:38:51.869Z,90.42
2023-01-18T00:41:20.320Z,90.67
2023-01-18T00:43:47.499Z,90.91
2023-01-18T00:46:20.222Z,91.03
2023-01-18T00:48:48.369Z,91.06
2023-01-18T00:51:18.580Z,90.76
2023-01-18T00:53:45.667Z,90.64
2023-01-18T00:56:18.777Z,90.87
2023-01-18T00:58:46.179Z,90.76
2023-01-18T01:01:14.157Z,90.80
2023-01-18T01:03:59.750Z,90.57
2023-01-18T01:06:46.869Z,90.60
2023-01-18T01:09:26.407Z,90.61
2023-01-18T01:12:13.114Z,90.52
2023-01-18T01:15:02.126Z,90.73
2023-01-18T01:17:49.483Z,90.55
2023-01-18T01:20:35.340Z,90.07
2023-01-18T01:23:35.235Z,90.13
2023-01-18T01:26:12.992Z,89.80
2023-01-18T01:28:42.423Z,89.95
2023-01-18T01:31:12.910Z,90.52
2023-01-18T01:33:40.553Z,90.01
2023-01-18T01:36:13.536Z,90.39
2023-01-18T01:38:43.844Z,90.04
2023-01-18T01:41:35.278Z,90.22
2023-01-18T01:44:30.044Z,90.63
2023-01-18T01:47:03.174Z,90.41
2023-01-18T01:49:35.044Z,90.14
2023-01-18T01:52:09.484Z,90.19
2023-01-18T01:54:44.453Z,90.02
2023-01-18T01:57:22.177Z,90.22
2023-01-18T02:00:02.676Z,90.07
2023-01-18T02:02:41.613Z,89.96
2023-01-18T02:05:13.013Z,89.81
2023-01-18T02:07:41.497Z,89.46
2023-01-18T02:10:09.322Z,90.08
2023-01-18T02:12:39.247Z,89.89
2023-01-18T02:15:07.774Z,89.89
2023-01-18T02:17:38.821Z,89.71
2023-01-18T02:20:25.810Z,89.25
2023-01-18T02:23:20.492Z,89.50
2023-01-18T02:26:24.611Z,89.14
2023-01-18T02:29:21.278Z,89.74
2023-01-18T02:31:59.081Z,89.42
2023-01-18T02:34:55.803Z,89.53
2023-01-18T02:37:28.677Z,89.68
2023-01-18T02:40:02.474Z,89.62
2023-01-18T02:42:50.030Z,89.44
2023-01-18T02:45:47.688Z,89.20
2023-01-18T02:48:15.885Z,89.73
2023-01-18T02:50:42.917Z,89.18
2023-01-18T02:53:14.990Z,89.63
2023-01-18T02:55:59.430Z,89.42
2023-01-18T02:58:26.466Z,89.86
2023-01-18T03:01:32.171Z,89.49
2023-01-18T03:04:07.236Z,89.69
2023-01-18T03:06:35.254Z,89.38
2023-01-18T03:09:03.106Z,89.54
2023-01-18T03:11:43.762Z,89.40
2023-01-18T03:14:32.451Z,89.33
2023-01-18T03:17:23.975Z,90.17
2023-01-18T03:20:07.831Z,89.66
2023-01-18T03:23:01.521Z,90.16
2023-01-18T03:25:33.363Z,89.94
2023-01-18T03:28:24.575Z,90.38
2023-01-18T03:31:12.742Z,89.87
2023-01-18T03:33:46.210Z,89.80
2023-01-18T03:36:49.005Z,90.00
2023-01-18T03:39:28.662Z,89.71
2023-01-18T03:42:02.041Z,89.76
2023-01-18T03:44:36.023Z,89.61
2023-01-18T03:47:06.133Z,90.14
2023-01-18T03:49:34.974Z,89.76
2023-01-18T03:52:08.189Z,89.92
2023-01-18T03:54:44.480Z,89.78
2023-01-18T03:57:25.683Z,89.77
2023-01-18T03:59:52.882Z,89.77
2023-01-18T04:02:21.598Z,89.77
2023-01-18T04:04:48.721Z,89.84
2023-01-18T04:07:15.950Z,89.62
2023-01-18T04:09:43.084Z,89.94
2023-01-18T04:12:10.240Z,89.95
2023-01-18T04:14:37.284Z,90.06
2023-01-18T04:17:04.387Z,90.09
2023-01-18T04:19:31.483Z,89.83
2023-01-18T04:21:58.551Z,89.81
2023-01-18T04:24:25.585Z,89.93
2023-01-18T04:26:52.731Z,89.82
2023-01-18T04:29:19.813Z,89.87
2023-01-18T04:31:47.403Z,89.79
2023-01-18T04:34:14.522Z,89.92
2023-01-18T04:36:41.652Z,89.78
2023-01-18T04:39:13.112Z,89.80
2023-01-18T04:41:40.177Z,89.79
2023-01-18T04:44:07.487Z,89.99
2023-01-18T04:46:34.982Z,89.66
2023-01-18T04:49:02.085Z,89.60
2023-01-18T04:51:31.494Z,89.66
2023-01-18T04:54:01.724Z,89.84
2023-01-18T04:56:28.957Z,90.04
2023-01-18T04:58:56.144Z,90.10
2023-01-18T05:01:23.840Z,90.10
2023-01-18T05:03:53.520Z,90.10
2023-01-18T05:06:20.938Z,90.29
2023-01-18T05:08:48.321Z,90.39
2023-01-18T05:11:17.460Z,90.79
2023-01-18T05:13:45.710Z,90.27
2023-01-18T05:16:15.842Z,90.46
2023-01-18T05:18:43.692Z,90.33
2023-01-18T05:21:11.118Z,90.19
2023-01-18T05:23:40.377Z,90.25
2023-01-18T05:26:14.736Z,90.40
2023-01-18T05:28:42.854Z,90.38
2023-01-18T05:31:10.215Z,90.38
2023-01-18T05:33:37.569Z,90.41
2023-01-18T05:36:04.995Z,90.10
2023-01-18T05:38:32.289Z,90.29
2023-01-18T05:40:59.522Z,90.24
2023-01-18T05:43:28.662Z,90.47
2023-01-18T05:45:56.305Z,90.49
2023-01-18T05:48:24.288Z,90.38
2023-01-18T05:50:51.481Z,90.22
2023-01-18T05:53:21.764Z,90.50
2023-01-18T05:55:59.905Z,90.16
2023-01-18T05:58:28.458Z,90.26
2023-01-18T06:00:56.030Z,90.29
2023-01-18T06:03:24.245Z,90.38
2023-01-18T06:05:52.127Z,90.24
2023-01-18T06:08:19.523Z,90.31
2023-01-18T06:10:58.287Z,90.22
2023-01-18T06:13:28.271Z,90.39
2023-01-18T06:15:57.026Z,90.35
2023-01-18T06:18:26.134Z,90.32
2023-01-18T06:20:55.084Z,90.25
2023-01-18T06:23:22.394Z,90.28
2023-01-18T06:25:49.862Z,90.42
2023-01-18T06:28:17.312Z,90.49
2023-01-18T06:30:44.457Z,90.25
2023-01-18T06:33:11.644Z,90.88
2023-01-18T06:35:38.942Z,90.51
2023-01-18T06:38:05.980Z,90.64
2023-01-18T06:40:33.278Z,90.51
2023-01-18T06:43:00.666Z,90.87
2023-01-18T06:45:29.665Z,90.72
2023-01-18T06:47:56.827Z,90.93
2023-01-18T06:50:24.029Z,90.69
2023-01-18T06:52:51.931Z,90.54
2023-01-18T06:55:19.928Z,90.87
2023-01-18T06:57:48.062Z,90.70
2023-01-18T07:00:19.046Z,90.34
2023-01-18T07:02:46.291Z,90.69
2023-01-18T07:05:13.369Z,90.70
2023-01-18T07:07:40.389Z,90.66
2023-01-18T07:10:08.018Z,90.78
2023-01-18T07:12:35.935Z,90.66
2023-01-18T07:15:20.537Z,90.74
2023-01-18T07:17:50.691Z,90.84
2023-01-18T07:20:18.651Z,90.71
2023-01-18T07:22:45.883Z,90.88
2023-01-18T07:25:13.674Z,90.55
2023-01-18T07:27:43.804Z,90.75
2023-01-18T07:30:12.627Z,90.61
2023-01-18T07:32:40.565Z,90.71
2023-01-18T07:35:07.971Z,90.63
2023-01-18T07:37:36.222Z,90.72
2023-01-18T07:40:03.609Z,90.71
2023-01-18T07:42:30.739Z,90.50
2023-01-18T07:44:57.799Z,90.75
2023-01-18T07:47:24.834Z,91.03
2023-01-18T07:49:51.943Z,90.69
2023-01-18T07:52:19.038Z,90.64
2023-01-18T07:54:46.074Z,90.83
2023-01-18T07:57:13.576Z,90.88
2023-01-18T07:59:40.805Z,90.81
2023-01-18T08:02:11.157Z,90.75
2023-01-18T08:04:39.566Z,90.96
2023-01-18T08:07:06.686Z,90.79
2023-01-18T08:09:34.379Z,90.95
2023-01-18T08:12:01.926Z,91.14
2023-01-18T08:14:29.024Z,91.40
2023-01-18T08:16:56.144Z,91.29
2023-01-18T08:19:23.342Z,91.54
2023-01-18T08:21:50.429Z,91.69
2023-01-18T08:24:17.546Z,91.58
2023-01-18T08:26:44.796Z,92.01
2023-01-18T08:29:11.915Z,91.66
2023-01-18T08:31:39.042Z,91.91
2023-01-18T08:34:06.222Z,91.96
2023-01-18T08:36:33.248Z,92.28
2023-01-18T08:39:00.334Z,92.23
2023-01-18T08:41:29.151Z,91.83
2023-01-18T08:43:57.551Z,92.09
2023-01-18T08:46:25.046Z,91.95
2023-01-18T08:48:53.938Z,92.15
2023-01-18T08:51:23.228Z,92.06
2023-01-18T08:53:56.747Z,92.08
2023-01-18T08:56:24.123Z,92.16
2023-01-18T08:58:52.372Z,92.29
2023-01-18T09:01:19.779Z,92.34
2023-01-18T09:03:48.988Z,92.10
2023-01-18T09:06:17.066Z,92.16
2023-01-18T09:08:47.314Z,91.82
2023-01-18T09:11:14.502Z,92.08
2023-01-18T09:14:00.293Z,92.00
2023-01-18T09:16:29.008Z,91.91
2023-01-18T09:18:56.614Z,91.90
2023-01-18T09:21:23.976Z,92.30
2023-01-18T09:23:51.188Z,92.19
2023-01-18T09:26:20.918Z,92.34
2023-01-18T09:28:51.231Z,92.39
2023-01-18T09:31:19.665Z,92.32
2023-01-18T09:33:53.239Z,92.39
2023-01-18T09:36:24.076Z,92.61
2023-01-18T09:38:51.207Z,92.60
2023-01-18T09:41:27.090Z,92.73
2023-01-18T09:44:00.054Z,92.59
2023-01-18T09:46:28.353Z,92.67
2023-01-18T09:48:59.532Z,92.90
2023-01-18T09:51:45.355Z,92.98
2023-01-18T09:54:28.315Z,92.72
2023-01-18T09:57:09.142Z,93.06
2023-01-18T09:59:44.098Z,92.98
2023-01-18T10:02:23.963Z,93.26
2023-01-18T10:04:59.358Z,92.82
2023-01-18T10:07:30.496Z,93.23
2023-01-18T10:10:01.060Z,92.67
2023-01-18T10:12:41.310Z,92.97
2023-01-18T10:15:17.642Z,92.91
2023-01-18T10:17:45.919Z,92.81
2023-01-18T10:20:42.942Z,92.86
2023-01-18T10:23:35.037Z,92.91
2023-01-18T10:26:08.081Z,92.72
2023-01-18T10:28:56.526Z,92.96
2023-01-18T10:31:35.493Z,92.86
2023-01-18T10:34:04.933Z,93.16
2023-01-18T10:36:39.178Z,93.43
2023-01-18T10:39:24.277Z,93.19
2023-01-18T10:41:51.633Z,92.98
2023-01-18T10:44:18.770Z,93.27
2023-01-18T10:46:46.022Z,93.00
2023-01-18T10:49:37.767Z,93.42
2023-01-18T10:52:26.509Z,93.70
2023-01-18T10:55:01.622Z,93.64
2023-01-18T10:57:43.621Z,93.40
2023-01-18T11:00:53.050Z,93.68
2023-01-18T11:03:20.494Z,93.57
2023-01-18T11:05:47.691Z,93.41
2023-01-18T11:08:34.593Z,93.51
2023-01-18T11:11:01.827Z,93.29
2023-01-18T11:13:44.892Z,93.82
2023-01-18T11:16:23.564Z,93.43
2023-01-18T11:19:06.321Z,93.79
2023-01-18T11:21:45.923Z,94.05
2023-01-18T11:24:18.886Z,94.07
2023-01-18T11:27:01.904Z,94.16
2023-01-18T11:29:35.937Z,94.14
2023-01-18T11:32:06.964Z,94.14
2023-01-18T11:34:37.692Z,94.16
2023-01-18T11:37:25.111Z,94.28
2023-01-18T11:39:52.287Z,94.16
2023-01-18T11:42:27.657Z,94.58
2023-01-18T11:45:16.369Z,94.85
2023-01-18T11:47:43.458Z,95.01
2023-01-18T11:50:30.746Z,95.01
2023-01-18T11:53:31.762Z,95.12
2023-01-18T11:56:06.681Z,95.06
2023-01-18T11:58:36.000Z,95.14
2023-01-18T12:01:21.955Z,94.79
2023-01-18T12:04:18.131Z,95.29
2023-01-18T12:07:18.699Z,95.49
2023-01-18T12:09:53.186Z,95.45
2023-01-18T12:12:20.587Z,95.79
2023-01-18T12:14:58.322Z,95.67
2023-01-18T12:18:07.778Z,95.68
2023-01-18T12:21:03.986Z,96.02
2023-01-18T12:23:48.495Z,96.17
2023-01-18T12:26:27.526Z,96.63
2023-01-18T12:29:09.609Z,96.69
2023-01-18T12:31:39.259Z,96.99
2023-01-18T12:34:15.180Z,97.06
2023-01-18T12:37:19.414Z,97.38
2023-01-18T12:40:11.237Z,97.71
2023-01-18T12:43:02.874Z,97.63
2023-01-18T12:45:57.470Z,97.78
2023-01-18T12:48:56.914Z,98.10
2023-01-18T12:51:28.857Z,98.01
2023-01-18T12:54:11.995Z,97.76
2023-01-18T12:56:43.206Z,97.74
2023-01-18T12:59:19.585Z,98.13
2023-01-18T13:01:56.314Z,98.32
2023-01-18T13:04:32.856Z,98.16
2023-01-18T13:07:07.368Z,98.44
2023-01-18T13:09:40.473Z,98.77
2023-01-18T13:12:08.308Z,98.56
2023-01-18T13:15:01.952Z,98.54
2023-01-18T13:17:39.559Z,98.85
2023-01-18T13:20:22.470Z,98.57
2023-01-18T13:23:21.683Z,98.75
2023-01-18T13:25:56.036Z,99.08
2023-01-18T13:28:25.151Z,98.80
2023-01-18T13:31:02.272Z,98.90
2023-01-18T13:33:32.939Z,98.80
2023-01-18T13:36:05.312Z,98.85
2023-01-18T13:38:41.752Z,98.93
2023-01-18T13:41:13.543Z,99.05
2023-01-18T13:43:41.643Z,99.22
2023-01-18T13:46:08.793Z,98.97
2023-01-18T13:48:45.484Z,98.90
2023-01-18T13:51:33.527Z,98.84
2023-01-18T13:54:00.640Z,99.08
2023-01-18T13:56:31.958Z,98.87
2023-01-18T13:59:15.791Z,98.92
2023-01-18T14:01:45.116Z,98.78
2023-01-18T14:04:32.037Z,99.05
2023-01-18T14:07:18.551Z,99.16
2023-01-18T14:09:48.634Z,98.96
2023-01-18T14:12:16.044Z,99.42
2023-01-18T14:14:55.718Z,99.06
2023-01-18T14:17:25.113Z,99.17
2023-01-18T14:20:28.522Z,99.14
2023-01-18T14:23:25.249Z,99.13
2023-01-18T14:26:33.026Z,99.05
2023-01-18T14:29:05.279Z,99.05
2023-01-18T14:31:40.086Z,98.92
2023-01-18T14:34:31.793Z,98.99
2023-01-18T14:36:59.349Z,99.07
2023-01-18T14:39:28.483Z,99.17
2023-01-18T14:41:58.937Z,99.14
2023-01-18T14:44:31.260Z,99.63
2023-01-18T14:46:59.471Z,99.19
2023-01-18T14:49:31.425Z,99.07
2023-01-18T14:51:59.830Z,99.18
2023-01-18T14:54:27.083Z,99.11
2023-01-18T14:57:06.130Z,99.02
2023-01-18T14:59:34.049Z,99.00
2023-01-18T15:02:13.914Z,99.02
2023-01-18T15:04:45.762Z,98.94
2023-01-18T15:07:24.265Z,99.17
2023-01-18T15:09:51.426Z,99.07
2023-01-18T15:12:26.638Z,98.74
2023-01-18T15:14:55.771Z,98.69
2023-01-18T15:17:25.527Z,98.76
2023-01-18T15:20:03.404Z,98.95
2023-01-18T15:22:34.475Z,99.02
2023-01-18T15:25:02.238Z,99.17
2023-01-18T15:27:32.818Z,98.85
2023-01-18T15:30:01.609Z,99.31
2023-01-18T15:32:36.330Z,99.17
2023-01-18T15:35:04.767Z,98.99
2023-01-18T15:37:34.463Z,99.06
2023-01-18T15:40:02.793Z,99.11
2023-01-18T15:42:39.681Z,99.41
2023-01-18T15:45:21.050Z,99.31
2023-01-18T15:47:54.484Z,99.33
2023-01-18T15:50:36.426Z,99.37
2023-01-18T15:53:12.139Z,99.29
2023-01-18T15:56:03.965Z,99.38
2023-01-18T15:58:39.371Z,99.24
2023-01-18T16:01:20.455Z,99.21
2023-01-18T16:03:47.766Z,99.42
2023-01-18T16:06:20.785Z,99.21
2023-01-18T16:08:57.197Z,99.43
2023-01-18T16:11:34.040Z,99.33
2023-01-18T16:14:08.112Z,99.58
2023-01-18T16:16:39.736Z,99.71
2023-01-18T16:19:40.767Z,99.58
2023-01-18T16:22:21.925Z,99.60
2023-01-18T16:25:02.796Z,99.32
2023-01-18T16:27:32.177Z,99.40
2023-01-18T16:30:17.486Z,99.42
2023-01-18T16:32:44.756Z,99.46
2023-01-18T16:35:20.409Z,99.40
2023-01-18T16:37:48.446Z,99.20
2023-01-18T16:40:21.641Z,99.65
2023-01-18T16:43:01.679Z,99.40
2023-01-18T16:45:31.520Z,99.61
2023-01-18T16:47:59.206Z,99.39
2023-01-18T16:50:27.132Z,99.37
2023-01-18T16:52:54.537Z,99.49
2023-01-18T16:55:22.988Z,99.40
2023-01-18T16:57:51.705Z,99.44
2023-01-18T17:00:24.803Z,99.55
2023-01-18T17:02:53.558Z,99.41
2023-01-18T17:05:21.012Z,99.87
2023-01-18T17:07:48.923Z,99.99
2023-01-18T17:10:24.717Z,100.00
2023-01-18T17:12:52.045Z,100.00
2023-01-18T17:15:20.149Z,100.00
2023-01-18T17:17:48.192Z,100.00
2023-01-18T17:20:21.433Z,100.00
2023-01-18T17:22:49.052Z,100.00
2023-01-18T17:25:16.663Z,100.00
2023-01-18T17:27:44.742Z,100.00
2023-01-18T17:30:13.881Z,100.00
2023-01-18T17:32:40.916Z,100.00
2023-01-18T17:35:08.801Z,100.00
2023-01-18T17:37:36.017Z,100.00
2023-01-18T17:40:16.341Z,99.93
2023-01-18T17:42:44.930Z,100.00
2023-01-18T17:45:14.679Z,100.00
2023-01-18T17:47:43.527Z,100.00
2023-01-18T17:50:14.442Z,100.00
2023-01-18T17:52:41.653Z,100.00
2023-01-18T17:55:11.836Z,100.00
2023-01-18T17:57:39.137Z,100.00
2023-01-18T18:00:08.167Z,100.00
2023-01-18T18:02:35.675Z,100.00
2023-01-18T18:05:03.204Z,100.00
2023-01-18T18:07:30.989Z,100.00
2023-01-18T18:10:01.413Z,99.61
2023-01-18T18:12:30.235Z,99.75
2023-01-18T18:14:57.730Z,99.67
2023-01-18T18:17:26.838Z,99.79
2023-01-18T18:19:54.258Z,100.00
2023-01-18T18:22:21.817Z,100.00
2023-01-18T18:24:50.029Z,99.75
2023-01-18T18:27:18.239Z,100.00
2023-01-18T18:29:45.955Z,100.00
2023-01-18T18:32:13.709Z,100.00
2023-01-18T18:34:40.917Z,100.00
2023-01-18T18:37:08.159Z,100.00
2023-01-18T18:39:35.266Z,100.00
2023-01-18T18:42:02.622Z,99.95
2023-01-18T18:44:29.735Z,100.00
2023-01-18T18:46:56.755Z,99.90
2023-01-18T18:49:23.891Z,100.00
2023-01-18T18:51:50.962Z,99.72
2023-01-18T18:54:18.420Z,100.00
2023-01-18T18:56:45.484Z,99.85
2023-01-18T18:59:12.519Z,99.65
2023-01-18T19:01:39.666Z,99.87
2023-01-18T19:04:06.944Z,99.75
2023-01-18T19:06:34.844Z,99.62
2023-01-18T19:09:02.014Z,99.82
2023-01-18T19:11:29.174Z,99.65
2023-01-18T19:13:57.128Z,99.56
2023-01-18T19:16:24.444Z,99.48
2023-01-18T19:18:51.505Z,99.71
2023-01-18T19:21:18.806Z,99.77
2023-01-18T19:23:46.241Z,99.69
2023-01-18T19:26:13.801Z,99.72
2023-01-18T19:28:42.234Z,99.55
2023-01-18T19:31:09.329Z,99.67
2023-01-18T19:33:37.034Z,99.81
2023-01-18T19:36:10.059Z,100.00
2023-01-18T19:38:46.591Z,99.86
2023-01-18T19:41:15.596Z,100.00
2023-01-18T19:43:45.712Z,100.00
2023-01-18T19:46:15.343Z,100.00
2023-01-18T19:48:43.234Z,99.72
2023-01-18T19:51:21.709Z,99.70
2023-01-18T19:53:49.456Z,99.29
2023-01-18T19:56:16.542Z,99.52
2023-01-18T19:58:43.683Z,99.50
2023-01-18T20:01:23.063Z,99.45
2023-01-18T20:03:53.839Z,99.34
2023-01-18T20:06:21.005Z,99.37
2023-01-18T20:08:51.763Z,99.70
2023-01-18T20:11:19.193Z,99.55
2023-01-18T20:13:50.616Z,99.63
2023-01-18T20:16:20.577Z,99.70
2023-01-18T20:18:49.003Z,99.77
2023-01-18T20:21:19.315Z,99.78
2023-01-18T20:23:46.422Z,99.75
2023-01-18T20:26:20.050Z,99.64
2023-01-18T20:28:56.095Z,99.86
2023-01-18T20:31:23.436Z,99.79
2023-01-18T20:33:50.584Z,99.81
2023-01-18T20:36:17.658Z,99.68
2023-01-18T20:38:44.843Z,99.77
2023-01-18T20:41:12.188Z,99.60
2023-01-18T20:43:39.680Z,99.64
2023-01-18T20:46:10.291Z,99.93
2023-01-18T20:48:38.074Z,99.84
2023-01-18T20:51:10.178Z,100.00
2023-01-18T20:53:40.151Z,99.34
2023-01-18T20:56:28.485Z,99.48
2023-01-18T20:58:58.348Z,99.58
2023-01-18T21:01:31.941Z,99.58
2023-01-18T21:04:00.761Z,99.17
2023-01-18T21:06:28.436Z,99.08
2023-01-18T21:08:57.416Z,99.15
2023-01-18T21:11:26.814Z,99.01
2023-01-18T21:13:54.627Z,99.58
2023-01-18T21:16:23.624Z,99.37
2023-01-18T21:18:52.970Z,99.56
2023-01-18T21:21:20.376Z,99.73
2023-01-18T21:23:47.499Z,99.61
2023-01-18T21:26:15.003Z,99.66
2023-01-18T21:28:42.124Z,99.92
2023-01-18T21:31:09.350Z,100.00
2023-01-18T21:33:36.804Z,100.00
2023-01-18T21:36:09.753Z,100.00
2023-01-18T21:38:36.927Z,100.00
2023-01-18T21:41:23.045Z,100.00
2023-01-18T21:44:11.382Z,100.00
2023-01-18T21:46:39.099Z,100.00
2023-01-18T21:49:07.008Z,100.00
2023-01-18T21:51:52.722Z,100.00
2023-01-18T21:54:22.177Z,100.00
2023-01-18T21:56:51.008Z,100.00
2023-01-18T21:59:18.190Z,100.00
2023-01-18T22:01:47.245Z,100.00
2023-01-18T22:04:34.855Z,100.00
2023-01-18T22:07:02.208Z,100.00
2023-01-18T22:09:31.503Z,100.00
2023-01-18T22:11:58.757Z,100.00
2023-01-18T22:14:26.392Z,100.00
2023-01-18T22:16:54.049Z,100.00
2023-01-18T22:19:21.503Z,99.97
2023-01-18T22:21:49.770Z,100.00
2023-01-18T22:24:18.050Z,100.00
2023-01-18T22:26:45.776Z,100.00
2023-01-18T22:29:12.957Z,100.00
2023-01-18T22:31:40.408Z,100.00
2023-01-18T22:34:08.163Z,100.00
2023-01-18T22:36:35.334Z,99.82
2023-01-18T22:39:02.644Z,99.88
2023-01-18T22:41:29.933Z,99.65
2023-01-18T22:43:57.540Z,99.94
2023-01-18T22:46:24.878Z,99.53
2023-01-18T22:48:52.307Z,99.73
2023-01-18T22:51:22.166Z,99.55
2023-01-18T22:53:49.799Z,99.45
2023-01-18T22:56:20.596Z,99.76
2023-01-18T22:58:48.576Z,99.65
2023-01-18T23:01:25.236Z,99.41
2023-01-18T23:03:55.340Z,99.60
2023-01-18T23:06:22.469Z,99.60
2023-01-18T23:08:50.292Z,100.00
2023-01-18T23:11:29.456Z,100.00
2023-01-18T23:14:17.109Z,100.00
2023-01-18T23:17:03.052Z,100.00
2023-01-18T23:19:30.935Z,100.00
2023-01-18T23:21:58.406Z,100.00
2023-01-18T23:24:26.039Z,100.00
2023-01-18T23:26:53.247Z,100.00
2023-01-18T23:29:20.713Z,100.00
2023-01-18T23:31:47.693Z,100.00
2023-01-18T23:34:14.783Z,100.00
2023-01-18T23:36:41.834Z,100.00
2023-01-18T23:39:27.811Z,100.00
2023-01-18T23:42:13.327Z,100.00
2023-01-18T23:44:58.963Z,100.00
2023-01-18T23:47:44.530Z,100.00
2023-01-18T23:50:30.113Z,100.00
2023-01-18T23:53:18.941Z,100.00
2023-01-18T23:55:46.281Z,100.00
2023-01-18T23:58:13.442Z,100.00
